Broad Creek Laurel DE USA current weather conditions

sailwx.info

Wind from 346 at 3 knots gusting 5

Air temperature -4.6° C
Dewpoint -12.9° C

Last reported at 2019-Nov-13 09:00 UTC.
Time now 2019-Nov-13 09:37 UTC

Location: N 38°32' W 075°36'.
View on Google Maps.

See reports from other nearby stations

  
Tides and Currents Weather Stations Pressure Air Temp Water Temp Dewpoint Dewpoint Depression Visibility Wind Speed Wind Dir Waves Ship Positions
date/time (UTC)wind fromknots sea level pressurealtimeterstation pressurevisibilityair tempwater tempwave heightnotes
2019-Nov-13 09:00 346 3 gusting 5 -4.6
2019-Nov-13 08:55 347 3 gusting 4 -4.8
2019-Nov-13 08:50 344 4 gusting 6 -4.7
2019-Nov-13 08:45 337 4 gusting 4 -4.7
2019-Nov-13 08:40 337 4 gusting 5 -4.8
2019-Nov-13 08:35 341 4 gusting 5 -4.6
2019-Nov-13 08:30 339 3 gusting 4 -4.6
2019-Nov-13 08:25 344 4 gusting 6 -4.5
2019-Nov-13 08:20 345 3 gusting 4 -4.4
2019-Nov-13 08:15 343 2 gusting 4 -4.2
2019-Nov-13 08:10 352 3 gusting 4 -4.1
2019-Nov-13 08:05 344 3 gusting 5 -4.1
2019-Nov-13 08:00 347 4 gusting 5 -4.0
2019-Nov-13 07:55 351 4 gusting 6 -3.9
2019-Nov-13 07:50 356 5 gusting 7 -3.8
2019-Nov-13 07:45 354 5 gusting 8 -3.7
2019-Nov-13 07:40 350 7 gusting 9 -3.6
2019-Nov-13 07:35 352 6 gusting 11 -3.6
2019-Nov-13 07:30 351 6 gusting 8 -3.5
2019-Nov-13 07:25 352 6 gusting 9 -3.5
2019-Nov-13 07:20 351 6 gusting 8 -3.5
2019-Nov-13 07:15 354 5 gusting 8 -3.5
2019-Nov-13 07:10 355 6 gusting 9 -3.3
2019-Nov-13 07:05 352 6 gusting 10 -3.3
2019-Nov-13 07:00 353 6 gusting 9 -3.2
2019-Nov-13 06:55 358 7 gusting 10 -3.0
2019-Nov-13 06:50 355 8 gusting 14 -2.9
2019-Nov-13 06:45 355 7 gusting 10 -2.9
2019-Nov-13 06:40 356 7 gusting 11 -3.0
2019-Nov-13 06:35 355 6 gusting 9 -3.1
2019-Nov-13 06:30 348 6 gusting 9 -2.9
2019-Nov-13 06:25 352 6 gusting 9 -3.0
2019-Nov-13 06:20 354 5 gusting 7 -3.0
2019-Nov-13 06:15 347 5 gusting 8 -2.8
2019-Nov-13 06:10 348 6 gusting 8 -2.7
2019-Nov-13 06:05 349 6 gusting 9 -2.5
2019-Nov-13 06:00 -2.4
2019-Nov-13 05:55 001 6 gusting 9 -2.3
2019-Nov-13 05:50 -2.2
2019-Nov-13 05:45 357 8 gusting 11 -2.2
2019-Nov-13 05:40 358 8 gusting 13 -2.1
2019-Nov-13 05:35 359 8 gusting 11 -2.1
2019-Nov-13 05:30 358 8 gusting 11 -2.0
2019-Nov-13 05:25 -1.8
2019-Nov-13 05:20 357 9 gusting 13 -1.8
2019-Nov-13 05:15 358 9 gusting 14 -1.7
2019-Nov-13 05:10 002 10 gusting 15 -1.7
2019-Nov-13 05:05 002 9 gusting 11 -1.6
2019-Nov-13 05:00 357 10 gusting 15 -1.5
2019-Nov-13 04:55 357 10 gusting 16 -1.4
2019-Nov-13 04:50 -1.3
2019-Nov-13 04:45 002 9 gusting 13 -1.2
2019-Nov-13 04:40 002 10 gusting 15 -1.2
2019-Nov-13 04:35 357 11 gusting 15 -1.1
2019-Nov-13 04:30 002 10 gusting 16 -1.1
2019-Nov-13 04:25 002 9 gusting 14 -1.0
2019-Nov-13 04:20 001 8 gusting 12 -0.9
2019-Nov-13 04:15 356 11 gusting 15 -0.8
2019-Nov-13 04:10 357 9 gusting 13 -0.7
2019-Nov-13 04:05 359 9 gusting 14 -0.5
2019-Nov-13 04:00 003 11 gusting 17 -0.5
2019-Nov-13 03:55 355 11 gusting 18 -0.4
2019-Nov-13 03:50 358 8 gusting 15 -0.4
2019-Nov-13 03:45 358 9 gusting 12 -0.2
2019-Nov-13 03:40 356 9 gusting 12 -0.2
2019-Nov-13 03:35 353 9 gusting 13 -0.2
2019-Nov-13 03:30 352 9 gusting 15 -0.1
2019-Nov-13 03:25 353 8 gusting 11 -0.1
2019-Nov-13 03:20 346 7 gusting 11 -0.1
2019-Nov-13 03:15 354 6 gusting 9 -0.0
2019-Nov-13 03:10 353 8 gusting 11 -0.0
2019-Nov-13 03:05 350 8 gusting 11 0.1
2019-Nov-13 03:00 349 8 gusting 12 0.0
2019-Nov-13 02:55 348 9 gusting 15 0.2
2019-Nov-13 02:50 349 8 gusting 11 0.2
2019-Nov-13 02:45 355 9 gusting 12 0.3
2019-Nov-13 02:40 353 10 gusting 17 0.4
2019-Nov-13 02:35 358 9 gusting 16 0.3
2019-Nov-13 02:30 358 9 gusting 12 0.4
2019-Nov-13 02:25 352 9 gusting 13 0.5
2019-Nov-13 02:20 358 10 gusting 14 0.5
2019-Nov-13 02:15 358 9 gusting 14 0.5
2019-Nov-13 02:10 355 8 gusting 11 0.5
2019-Nov-13 02:05 350 9 gusting 15 0.5
2019-Nov-13 02:00 351 8 gusting 12 0.6
2019-Nov-13 01:55 355 8 gusting 12 0.6
2019-Nov-13 01:50 002 7 gusting 9 0.6
2019-Nov-13 01:45 358 8 gusting 12 0.7
2019-Nov-13 01:40 359 8 gusting 12 0.8
2019-Nov-13 01:35 353 9 gusting 14 0.7
2019-Nov-13 01:30 358 7 gusting 10 0.8
2019-Nov-13 01:25 354 8 gusting 12 0.8
2019-Nov-13 01:20 355 9 gusting 13 0.8
2019-Nov-13 01:15 358 9 gusting 13 0.8
2019-Nov-13 01:10 005 8 gusting 13 0.7
2019-Nov-13 01:05 002 8 gusting 11 0.7
2019-Nov-13 01:00 358 7 gusting 11 0.7
2019-Nov-13 00:55 001 7 gusting 10 0.7
2019-Nov-13 00:50 005 7 gusting 10 0.8
2019-Nov-13 00:45 005 7 gusting 10 0.8
2019-Nov-13 00:40 005 7 gusting 11 0.8
2019-Nov-13 00:35 006 6 gusting 10 0.8
2019-Nov-13 00:30 005 6 gusting 8 0.8
2019-Nov-13 00:25 004 5 gusting 8 0.8
2019-Nov-13 00:20 005 6 gusting 8 0.8
2019-Nov-13 00:15 360 5 gusting 7 0.8
2019-Nov-13 00:10 357 5 gusting 7 0.8
2019-Nov-13 00:05 359 5 gusting 7 0.7
2019-Nov-13 00:00 003 4 gusting 6 0.7
2019-Nov-12 23:55 010 4 gusting 6 0.7
2019-Nov-12 23:50 011 4 gusting 7 0.8
2019-Nov-12 23:45 009 4 gusting 5 0.8
2019-Nov-12 23:40 006 4 gusting 6 0.9
2019-Nov-12 23:35 007 5 gusting 7 0.9
2019-Nov-12 23:30 008 5 gusting 8 1.0
2019-Nov-12 23:25 005 4 gusting 6 1.0
2019-Nov-12 23:20 004 5 gusting 7 1.2
2019-Nov-12 23:15 004 5 gusting 8 1.2
2019-Nov-12 23:10 003 6 gusting 8 1.2
2019-Nov-12 23:05 009 4 gusting 7 1.2
2019-Nov-12 23:00 005 4 gusting 6 1.3
2019-Nov-12 22:55 011 5 gusting 8 1.4
2019-Nov-12 22:50 009 5 gusting 9 1.5
2019-Nov-12 22:45 008 6 gusting 9 1.6
2019-Nov-12 22:40 004 7 gusting 9 1.7
2019-Nov-12 22:35 1.7
2019-Nov-12 22:30 360 8 gusting 13 1.7
2019-Nov-12 22:25 001 6 gusting 9 1.6
2019-Nov-12 22:20 360 6 gusting 11 1.7
2019-Nov-12 22:15 357 5 gusting 7 1.6
2019-Nov-12 22:10 347 5 gusting 8 1.6
2019-Nov-12 22:05 350 6 gusting 8 1.7
2019-Nov-12 22:00 345 7 gusting 10 1.8
2019-Nov-12 21:55 343 8 gusting 12 1.9
2019-Nov-12 21:50 343 9 gusting 14 1.9
2019-Nov-12 21:45 343 8 gusting 12 1.9
2019-Nov-12 21:40 340 9 gusting 12 2.0
2019-Nov-12 21:35 343 8 gusting 12 1.8
2019-Nov-12 21:30 343 7 gusting 10 1.8
2019-Nov-12 21:25 344 7 gusting 12 1.8
2019-Nov-12 21:20 337 8 gusting 13 1.7
2019-Nov-12 21:15 337 8 gusting 11 1.7
2019-Nov-12 21:10 338 8 gusting 14 1.5
2019-Nov-12 21:05 343 5 gusting 8 1.2
2019-Nov-12 21:00 341 4 gusting 6 1.2
2019-Nov-12 20:55 346 5 gusting 7 1.1
2019-Nov-12 20:50 353 5 gusting 8 1.1
2019-Nov-12 20:45 356 7 gusting 12 1.2
2019-Nov-12 20:40 354 10 gusting 15 1.0
2019-Nov-12 20:35 345 12 gusting 17 0.7
2019-Nov-12 20:30 318 8 gusting 17 0.5
2019-Nov-12 20:25 330 7 gusting 11 0.4
2019-Nov-12 20:20 345 7 gusting 9 0.4
2019-Nov-12 20:15 338 8 gusting 17 0.3
2019-Nov-12 20:10 338 7 gusting 10 0.2
2019-Nov-12 20:05 329 9 gusting 14 0.2
2019-Nov-12 20:00 332 9 gusting 13 0.2
2019-Nov-12 19:55 333 6 gusting 12 0.2
2019-Nov-12 19:50 323 7 gusting 10 0.2
2019-Nov-12 19:45 323 7 gusting 10 0.2
2019-Nov-12 19:40 329 7 gusting 10 0.2
2019-Nov-12 19:35 326 7 gusting 11 0.2
2019-Nov-12 19:30 334 8 gusting 13 0.3
2019-Nov-12 19:25 323 9 gusting 17 0.3
2019-Nov-12 19:20 330 8 gusting 18 0.3
2019-Nov-12 19:15 325 5 gusting 8 0.3
2019-Nov-12 19:10 325 7 gusting 10 0.3
2019-Nov-12 19:05 323 5 gusting 7 0.3
2019-Nov-12 19:00 324 5 gusting 7 0.4
2019-Nov-12 18:55 328 7 gusting 10 0.4
2019-Nov-12 18:50 323 8 gusting 12 0.5
2019-Nov-12 18:45 323 9 gusting 14 0.6
2019-Nov-12 18:40 322 7 gusting 12 0.6
2019-Nov-12 18:35 324 6 gusting 9 0.6
2019-Nov-12 18:30 325 8 gusting 12 0.7
2019-Nov-12 18:25 329 8 gusting 12 0.9
2019-Nov-12 18:20 333 10 gusting 15 1.1
2019-Nov-12 18:15 327 11 gusting 16 1.3
2019-Nov-12 18:10 334 11 gusting 18 1.6
2019-Nov-12 18:05 330 12 gusting 18 1.8
2019-Nov-12 18:00 329 12 gusting 18 1.9
2019-Nov-12 17:55 319 12 gusting 19 2.1
2019-Nov-12 17:50 321 11 gusting 17 2.4
2019-Nov-12 17:45 323 12 gusting 18 2.7
2019-Nov-12 17:40 331 13 gusting 18 3.0
2019-Nov-12 17:35 326 13 gusting 22 3.2
2019-Nov-12 17:30 322 12 gusting 19 3.3
2019-Nov-12 17:25 319 11 gusting 19 3.4
2019-Nov-12 17:20 316 10 gusting 15 3.6
2019-Nov-12 17:15 320 12 gusting 17 3.7
2019-Nov-12 17:10 316 12 gusting 19 3.8
2019-Nov-12 17:05 310 16 gusting 24 4.0
2019-Nov-12 17:00 313 12 gusting 21 4.3
2019-Nov-12 16:55 307 13 gusting 20 4.4
2019-Nov-12 16:50 311 12 gusting 17 4.6
2019-Nov-12 16:45 313 12 gusting 18 4.7
2019-Nov-12 16:40 317 12 gusting 18 4.8
2019-Nov-12 16:35 317 12 gusting 19 4.9
2019-Nov-12 16:30 319 13 gusting 21 5.0
2019-Nov-12 16:25 319 13 gusting 22 5.1
2019-Nov-12 16:20 316 12 gusting 21 5.3
2019-Nov-12 16:15 319 12 gusting 18 5.5
2019-Nov-12 16:10 314 15 gusting 23 5.7
2019-Nov-12 16:05 306 13 gusting 18 6.0
2019-Nov-12 16:00 312 15 gusting 20 6.3
2019-Nov-12 15:55 304 11 gusting 23 6.6
2019-Nov-12 15:50 309 11 gusting 18 6.7
2019-Nov-12 15:45 306 10 gusting 14 6.9
2019-Nov-12 15:40 301 10 gusting 14 7.1
2019-Nov-12 15:35 302 10 gusting 14 7.2
2019-Nov-12 15:30 309 8 gusting 13 7.3
2019-Nov-12 15:25 315 9 gusting 15 7.4
2019-Nov-12 15:20 317 10 gusting 18 7.5
2019-Nov-12 15:15 320 12 gusting 17 7.8
2019-Nov-12 15:10 316 14 gusting 22 7.9
2019-Nov-12 15:05 309 12 gusting 21 8.1
2019-Nov-12 15:00 302 10 gusting 18 8.3
2019-Nov-12 14:55 294 9 gusting 12 8.5
2019-Nov-12 14:50 290 9 gusting 14 8.7
2019-Nov-12 14:45 302 9 gusting 14 8.8
2019-Nov-12 14:40 295 9 gusting 17 8.9
2019-Nov-12 14:35 298 10 gusting 14 9.1
2019-Nov-12 14:30 295 11 gusting 16 9.6
2019-Nov-12 14:25 284 13 gusting 21 10.4
2019-Nov-12 14:20 291 7 gusting 11 10.8
2019-Nov-12 14:15 288 6 gusting 11 10.9
2019-Nov-12 14:10 295 5 gusting 7 11.0
2019-Nov-12 14:05 300 7 gusting 9 11.0
2019-Nov-12 14:00 301 6 gusting 8 11.1
2019-Nov-12 13:55 302 8 gusting 10 11.3
2019-Nov-12 13:50 301 8 gusting 13 11.5
2019-Nov-12 13:45 289 8 gusting 12 11.9
2019-Nov-12 13:40 271 7 gusting 12 12.1
2019-Nov-12 13:35 263 6 gusting 8 12.2
2019-Nov-12 13:30 258 5 gusting 7 12.3
2019-Nov-12 13:25 249 6 gusting 9 12.4
2019-Nov-12 13:20 243 6 gusting 8 12.4
2019-Nov-12 13:15 238 6 gusting 8 12.5
2019-Nov-12 13:10 240 6 gusting 8 12.6
2019-Nov-12 13:05 242 6 gusting 8 12.6
2019-Nov-12 13:00 234 6 gusting 9 12.7
2019-Nov-12 12:55 232 6 gusting 9 12.7
2019-Nov-12 12:50 236 7 gusting 10 12.8
2019-Nov-12 12:45 240 8 gusting 10 12.9
2019-Nov-12 12:40 239 7 gusting 10 13.0
2019-Nov-12 12:35 238 8 gusting 12 13.2
2019-Nov-12 12:30 243 9 gusting 12 13.5
2019-Nov-12 12:25 240 9 gusting 15 13.7
2019-Nov-12 12:20 242 9 gusting 13 13.9
2019-Nov-12 12:15 238 10 gusting 14 14.0
2019-Nov-12 12:10 234 9 gusting 12 14.0
2019-Nov-12 12:05 232 8 gusting 10 14.0
2019-Nov-12 12:00 224 7 gusting 10 14.0
2019-Nov-12 11:55 223 8 gusting 10 14.0
2019-Nov-12 11:50 222 7 gusting 11 14.1
2019-Nov-12 11:45 225 8 gusting 11 14.1
2019-Nov-12 11:40 223 8 gusting 12 14.1
2019-Nov-12 11:35 225 8 gusting 11 14.1
2019-Nov-12 11:30 224 7 gusting 10 14.0
2019-Nov-12 11:25 217 7 gusting 10 14.1
2019-Nov-12 11:20 217 8 gusting 12 14.3
2019-Nov-12 11:15 223 8 gusting 14 14.3
2019-Nov-12 11:10 223 7 gusting 9 14.3
2019-Nov-12 11:05 226 8 gusting 10 14.3
2019-Nov-12 11:00 218 8 gusting 13 14.3
2019-Nov-12 10:55 222 7 gusting 10 14.3
2019-Nov-12 10:50 225 8 gusting 12 14.3
2019-Nov-12 10:45 223 8 gusting 14 14.4
2019-Nov-12 10:40 222 8 gusting 12 14.4
2019-Nov-12 10:35 223 11 gusting 15 14.4
2019-Nov-12 10:30 223 9 gusting 13 14.3
2019-Nov-12 10:25 222 9 gusting 16 14.3
2019-Nov-12 10:20 217 9 gusting 13 14.1
2019-Nov-12 10:15 219 7 gusting 10 14.1
2019-Nov-12 10:10 218 10 gusting 15 14.2
2019-Nov-12 10:05 219 9 gusting 12 14.1
2019-Nov-12 10:00 215 9 gusting 16 14.1
2019-Nov-12 09:55 214 9 gusting 13 14.2
2019-Nov-12 09:50 211 10 gusting 14 14.2
2019-Nov-12 09:45 209 10 gusting 13 14.3
2019-Nov-12 09:40 208 11 gusting 15 14.3
2019-Nov-12 09:35 208 8 gusting 13 14.3
2019-Nov-12 09:30 215 9 gusting 14 14.3
2019-Nov-12 09:25 210 9 gusting 13 14.3
2019-Nov-12 09:20 217 12 gusting 19 14.4
2019-Nov-12 09:15 219 10 gusting 18 14.3
2019-Nov-12 09:10 217 12 gusting 18 14.3
2019-Nov-12 09:05 218 9 gusting 13 14.2
2019-Nov-12 09:00 217 12 gusting 19 14.4
2019-Nov-12 08:55 214 12 gusting 18 14.3
2019-Nov-12 08:50 218 11 gusting 16 14.3
2019-Nov-12 08:45 218 10 gusting 16 14.2
2019-Nov-12 08:40 213 11 gusting 15 14.3
2019-Nov-12 08:35 209 11 gusting 17 14.3
2019-Nov-12 08:30 213 11 gusting 16 14.3
2019-Nov-12 08:25 213 10 gusting 13 14.4
2019-Nov-12 08:20 208 11 gusting 16 14.4
2019-Nov-12 08:15 209 11 gusting 16 14.4
2019-Nov-12 08:10 212 11 gusting 15 14.4
2019-Nov-12 08:05 208 10 gusting 14 14.4
2019-Nov-12 08:00 210 10 gusting 16 14.5
2019-Nov-12 07:55 215 11 gusting 16 14.4
2019-Nov-12 07:50 213 10 gusting 15 14.4
2019-Nov-12 07:45 211 11 gusting 17 14.5
2019-Nov-12 07:40 208 10 gusting 14 14.5
2019-Nov-12 07:35 214 11 gusting 15 14.6
2019-Nov-12 07:30 210 10 gusting 14 14.7
2019-Nov-12 07:25 209 12 gusting 15 14.7
2019-Nov-12 07:20 207 11 gusting 17 14.7
2019-Nov-12 07:15 206 10 gusting 15 14.6
2019-Nov-12 07:10 201 9 gusting 13 14.6
2019-Nov-12 07:05 204 9 gusting 13 14.6
2019-Nov-12 07:00 204 11 gusting 18 14.7
2019-Nov-12 06:55 204 11 gusting 15 14.8
2019-Nov-12 06:50 203 10 gusting 16 14.7
2019-Nov-12 06:45 205 9 gusting 14 14.7
2019-Nov-12 06:40 204 9 gusting 16 14.7
2019-Nov-12 06:35 201 10 gusting 16 14.8
2019-Nov-12 06:30 202 9 gusting 13 14.8
2019-Nov-12 06:25 199 9 gusting 14 14.8
2019-Nov-12 06:20 200 10 gusting 15 14.9
2019-Nov-12 06:15 207 10 gusting 14 14.7
2019-Nov-12 06:10 200 8 gusting 14 14.7
2019-Nov-12 06:05 202 9 gusting 14 14.9
2019-Nov-12 06:00 200 10 gusting 17 14.9
2019-Nov-12 05:55 204 10 gusting 13 15.0
2019-Nov-12 05:50 206 11 gusting 15 15.0
2019-Nov-12 05:45 204 10 gusting 17 15.0
2019-Nov-12 05:40 209 9 gusting 16 15.0
2019-Nov-12 05:35 205 9 gusting 15 15.0
2019-Nov-12 05:30 203 9 gusting 16 15.0
2019-Nov-12 05:25 201 8 gusting 16 15.0
2019-Nov-12 05:20 205 9 gusting 14 15.1
2019-Nov-12 05:15 204 10 gusting 16 15.1
2019-Nov-12 05:10 201 9 gusting 13 15.1
2019-Nov-12 05:05 202 10 gusting 15 15.2
2019-Nov-12 05:00 201 10 gusting 15 15.3
2019-Nov-12 04:55 201 11 gusting 16 15.1
2019-Nov-12 04:50 202 9 gusting 15 15.0
2019-Nov-12 04:45 200 8 gusting 11 14.9
2019-Nov-12 04:40 197 8 gusting 13 14.9
2019-Nov-12 04:35 201 8 gusting 13 14.8
2019-Nov-12 04:30 202 8 gusting 12 14.8
2019-Nov-12 04:25 200 7 gusting 12 14.5
2019-Nov-12 04:20 198 7 gusting 10 14.5
2019-Nov-12 04:15 199 7 gusting 10 14.5
2019-Nov-12 04:10 197 7 gusting 11 14.3
2019-Nov-12 04:05 198 6 gusting 8 14.3
2019-Nov-12 04:00 196 7 gusting 11 14.3
2019-Nov-12 03:55 197 7 gusting 9 14.3
2019-Nov-12 03:50 198 7 gusting 11 14.3
2019-Nov-12 03:45 198 6 gusting 9 14.4
2019-Nov-12 03:40 195 7 gusting 11 14.4
2019-Nov-12 03:35 196 7 gusting 11 14.4
2019-Nov-12 03:30 200 7 gusting 10 14.4
2019-Nov-12 03:25 196 7 gusting 12 14.4
2019-Nov-12 03:20 196 8 gusting 12 14.5
2019-Nov-12 03:15 195 8 gusting 13 14.3
2019-Nov-12 03:10 196 7 gusting 10 14.2
2019-Nov-12 03:05 196 7 gusting 12 14.2
2019-Nov-12 03:00 198 7 gusting 11 14.2
2019-Nov-12 02:55 199 6 gusting 10 14.1
2019-Nov-12 02:50 197 7 gusting 9 14.2
2019-Nov-12 02:45 195 7 gusting 11 14.2
2019-Nov-12 02:40 200 7 gusting 11 14.1
2019-Nov-12 02:35 196 7 gusting 9 14.2
2019-Nov-12 02:30 202 7 gusting 12 14.2
2019-Nov-12 02:25 199 7 gusting 12 14.1
2019-Nov-12 02:20 196 7 gusting 12 14.2
2019-Nov-12 02:15 193 8 gusting 11 14.1
2019-Nov-12 02:10 194 7 gusting 11 14.0
2019-Nov-12 02:05 195 6 gusting 9 13.7
2019-Nov-12 02:00 198 6 gusting 11 13.8
2019-Nov-12 01:55 198 6 gusting 8 13.8
2019-Nov-12 01:50 196 6 gusting 11 13.8
2019-Nov-12 01:45 192 6 gusting 10 13.7
2019-Nov-12 01:40 194 7 gusting 11 13.7
2019-Nov-12 01:35 198 6 gusting 9 13.4
2019-Nov-12 01:30 198 6 gusting 8 13.4
2019-Nov-12 01:25 194 5 gusting 8 13.3
2019-Nov-12 01:20 195 5 gusting 7 13.3
2019-Nov-12 01:15 202 6 gusting 9 13.5
2019-Nov-12 01:10 201 6 gusting 9 13.4
2019-Nov-12 01:05 200 6 gusting 9 13.4
2019-Nov-12 01:00 197 6 gusting 10 13.5
2019-Nov-12 00:55 199 6 gusting 9 13.5
2019-Nov-12 00:50 197 7 gusting 9 13.7
2019-Nov-12 00:45 193 7 gusting 11 13.8
2019-Nov-12 00:40 188 6 gusting 9 13.5
2019-Nov-12 00:35 171 7 gusting 9 12.9
2019-Nov-12 00:30 164 7 gusting 9 12.9
2019-Nov-12 00:25 166 7 gusting 11 13.6
2019-Nov-12 00:20 175 7 gusting 9 13.8
2019-Nov-12 00:15 178 7 gusting 10 13.9
2019-Nov-12 00:10 183 5 gusting 10 14.0
2019-Nov-12 00:05 186 5 gusting 9 14.1
2019-Nov-12 00:00 184 6 gusting 9 14.0
2019-Nov-11 23:55 177 6 gusting 10 13.9
2019-Nov-11 23:50 172 9 gusting 12 13.8
2019-Nov-11 23:45 170 8 gusting 12 12.9
2019-Nov-11 23:40 167 6 gusting 10 11.8
2019-Nov-11 23:35 164 5 gusting 7 10.7
2019-Nov-11 23:30 163 4 gusting 5 10.3
2019-Nov-11 23:25 162 4 gusting 5 10.3
2019-Nov-11 23:20 160 4 gusting 4 10.6
2019-Nov-11 23:15 161 4 gusting 5 11.1
2019-Nov-11 23:10 156 4 gusting 5 11.4
2019-Nov-11 23:05 163 4 gusting 5 11.7
2019-Nov-11 23:00 152 4 gusting 5 11.5
2019-Nov-11 22:55 162 3 gusting 4 12.0
2019-Nov-11 22:50 161 4 gusting 5 13.5
2019-Nov-11 22:45 176 4 gusting 6 14.2
2019-Nov-11 22:40 186 3 gusting 5 14.2
2019-Nov-11 22:35 191 3 gusting 4 14.3
2019-Nov-11 22:30 199 3 gusting 4 14.4
2019-Nov-11 22:25 195 2 gusting 3 14.5
2019-Nov-11 22:20 190 2 gusting 3 14.5
2019-Nov-11 22:15 195 2 gusting 3 14.8
2019-Nov-11 22:10 201 2 gusting 3 15.0
2019-Nov-11 22:05 194 2 gusting 4 15.2
2019-Nov-11 22:00 194 3 gusting 4 15.4
2019-Nov-11 21:55 197 4 gusting 6 15.6
2019-Nov-11 21:50 195 5 gusting 8 16.0
2019-Nov-11 21:45 198 5 gusting 8 16.1
2019-Nov-11 21:40 204 6 gusting 8 16.3
2019-Nov-11 21:35 201 7 gusting 10 16.4
2019-Nov-11 21:30 203 7 gusting 10 16.8
2019-Nov-11 21:25 202 7 gusting 12 16.9
2019-Nov-11 21:20 196 7 gusting 8 17.2
2019-Nov-11 21:15 200 7 gusting 11 17.4
2019-Nov-11 21:10 190 5 gusting 8 17.7
2019-Nov-11 21:05 176 6 gusting 9 17.9
2019-Nov-11 21:00 175 5 gusting 9 18.0
2019-Nov-11 20:55 183 5 gusting 7 18.2
2019-Nov-11 20:50 174 7 gusting 11 18.4
2019-Nov-11 20:45 179 6 gusting 10 18.7
2019-Nov-11 20:40 181 6 gusting 8 18.7
2019-Nov-11 20:35 175 6 gusting 9 18.8
2019-Nov-11 20:30 171 7 gusting 10 18.8
2019-Nov-11 20:25 170 8 gusting 10 18.9
2019-Nov-11 20:20 174 7 gusting 10 19.1
2019-Nov-11 20:15 194 7 gusting 11 19.2
2019-Nov-11 20:10 175 7 gusting 10 19.4
2019-Nov-11 20:05 182 6 gusting 8 19.4
2019-Nov-11 20:00 184 6 gusting 9 19.5
2019-Nov-11 19:55 173 7 gusting 10 19.4
2019-Nov-11 19:50 168 10 gusting 12 19.5
2019-Nov-11 19:45 175 8 gusting 11 19.7
2019-Nov-11 19:40 168 8 gusting 11 19.8
2019-Nov-11 19:35 166 7 gusting 11 19.8
2019-Nov-11 19:30 175 6 gusting 8 19.7
2019-Nov-11 19:25 172 7 gusting 9 19.6
2019-Nov-11 19:20 176 6 gusting 8 19.5
2019-Nov-11 19:15 179 7 gusting 10 19.3
2019-Nov-11 19:10 166 7 gusting 10 19.2
2019-Nov-11 19:05 181 5 gusting 8 19.1
2019-Nov-11 19:00 182 6 gusting 8 19.2
2019-Nov-11 18:55 191 6 gusting 9 19.4
2019-Nov-11 18:50 186 5 gusting 8 19.3
2019-Nov-11 18:45 174 6 gusting 8 19.3
2019-Nov-11 18:40 184 5 gusting 7 19.1
2019-Nov-11 18:35 173 6 gusting 8 19.2
2019-Nov-11 18:30 181 4 gusting 6 19.1
2019-Nov-11 18:25 170 5 gusting 8 19.2
2019-Nov-11 18:20 171 5 gusting 7 19.4
2019-Nov-11 18:15 182 3 gusting 5 19.1
2019-Nov-11 18:10 202 3 gusting 7 19.2
2019-Nov-11 18:05 189 3 gusting 6 19.0
2019-Nov-11 18:00 213 4 gusting 6 18.6
2019-Nov-11 17:55 186 3 gusting 5 18.5
2019-Nov-11 17:50 190 4 gusting 6 18.5
2019-Nov-11 17:45 190 3 gusting 5 18.3
2019-Nov-11 17:40 224 2 gusting 4 18.3
2019-Nov-11 17:35 220 2 gusting 3 18.1
2019-Nov-11 17:30 194 3 gusting 5 18.2
2019-Nov-11 17:25 201 3 gusting 4 17.9
2019-Nov-11 17:20 200 2 gusting 4 17.8
2019-Nov-11 17:15 187 3 gusting 4 17.6
2019-Nov-11 17:10 195 2 gusting 4 17.5
2019-Nov-11 17:05 195 3 gusting 5 17.4
2019-Nov-11 17:00 184 2 gusting 4 17.2
2019-Nov-11 16:55 211 2 gusting 4 17.2
2019-Nov-11 16:50 209 3 gusting 5 16.7
2019-Nov-11 16:45 208 3 gusting 6 16.7
2019-Nov-11 16:40 182 3 gusting 4 16.5
2019-Nov-11 16:35 191 3 gusting 5 16.4
2019-Nov-11 16:30 191 3 gusting 4 16.5
2019-Nov-11 16:25 198 3 gusting 5 16.4
2019-Nov-11 16:20 182 2 gusting 4 16.3
2019-Nov-11 16:15 184 3 gusting 5 16.3
2019-Nov-11 16:10 200 2 gusting 5 15.7
2019-Nov-11 16:05 231 4 gusting 7 15.3
2019-Nov-11 16:00 231 4 gusting 8 15.4
2019-Nov-11 15:55 219 4 gusting 5 15.4
2019-Nov-11 15:50 214 4 gusting 6 15.2
2019-Nov-11 15:45 221 4 gusting 6 14.8
2019-Nov-11 15:40 221 5 gusting 7 14.8
2019-Nov-11 15:35 188 4 gusting 6 14.6
2019-Nov-11 15:30 212 4 gusting 6 14.4
2019-Nov-11 15:25 209 4 gusting 6 14.3
2019-Nov-11 15:20 214 4 gusting 6 14.1
2019-Nov-11 15:15 205 4 gusting 6 14.1
2019-Nov-11 15:10 191 4 gusting 5 14.0
2019-Nov-11 15:05 200 4 gusting 7 13.8
2019-Nov-11 15:00 210 5 gusting 7 13.8
2019-Nov-11 14:55 224 5 gusting 7 13.5
2019-Nov-11 14:50 216 6 gusting 8 13.4
2019-Nov-11 14:45 215 6 gusting 8 13.1
2019-Nov-11 14:40 215 6 gusting 8 13.1
2019-Nov-11 14:35 211 5 gusting 7 12.8
2019-Nov-11 14:30 214 6 gusting 8 12.8
2019-Nov-11 14:25 208 6 gusting 8 12.7
2019-Nov-11 14:20 215 5 gusting 8 12.6
2019-Nov-11 14:15 219 5 gusting 7 12.3
2019-Nov-11 14:10 221 7 gusting 9 12.2
2019-Nov-11 14:05 216 6 gusting 8 12.1
2019-Nov-11 14:00 212 6 gusting 8 11.9
2019-Nov-11 13:55 218 6 gusting 9 11.8
2019-Nov-11 13:50 219 4 gusting 7 11.7
2019-Nov-11 13:45 212 5 gusting 9 11.6
2019-Nov-11 13:40 215 5 gusting 8 11.4
2019-Nov-11 13:35 215 6 gusting 9 11.3
2019-Nov-11 13:30 212 5 gusting 7 11.1
2019-Nov-11 13:25 214 5 gusting 7 10.9
2019-Nov-11 13:20 210 6 gusting 8 10.7
2019-Nov-11 13:15 210 4 gusting 7 10.4
2019-Nov-11 13:10 207 3 gusting 5 10.2
2019-Nov-11 13:05 203 4 gusting 5 9.9
2019-Nov-11 13:00 202 3 gusting 5 9.5
2019-Nov-11 12:55 198 3 gusting 5 9.0
2019-Nov-11 12:50 196 2 gusting 4 8.6
2019-Nov-11 12:45 198 2 gusting 2 8.0
2019-Nov-11 12:40 191 1 gusting 2 7.6
2019-Nov-11 12:35 195 1 gusting 2 6.7
2019-Nov-11 12:30 220 1 gusting 2 6.1
2019-Nov-11 12:25 244 0 gusting 1 5.8
2019-Nov-11 12:20 250 0 gusting 1 5.6
2019-Nov-11 12:15 230 0 gusting 1 5.8
2019-Nov-11 12:10 222 1 gusting 1 5.6
2019-Nov-11 12:05 221 0 gusting 1 5.2
2019-Nov-11 12:00 181 0 gusting 1 5.0
2019-Nov-11 11:55 162 1 gusting 1 5.0
2019-Nov-11 11:50 160 0 gusting 1 5.2
2019-Nov-11 11:45 5.2
2019-Nov-11 11:40 5.5
2019-Nov-11 11:35 259 0 gusting 0 5.7
2019-Nov-11 11:30 192 0 gusting 1 5.9
2019-Nov-11 11:25 184 0 gusting 0 6.3
2019-Nov-11 11:20 184 0 gusting 1 6.6
2019-Nov-11 11:15 184 1 gusting 1 6.6
2019-Nov-11 11:10 174 1 gusting 1 6.7
2019-Nov-11 11:05 170 1 gusting 2 6.9
2019-Nov-11 11:00 186 1 gusting 2 7.0
2019-Nov-11 10:55 185 2 gusting 3 6.7
2019-Nov-11 10:50 183 1 gusting 1 6.6
2019-Nov-11 10:45 196 1 gusting 2 6.1
2019-Nov-11 10:40 247 0 gusting 1 5.9
2019-Nov-11 10:35 217 0 gusting 1 5.9
2019-Nov-11 10:30 201 0 gusting 1 6.2
2019-Nov-11 10:25 217 1 gusting 2 6.8
2019-Nov-11 10:20 195 1 gusting 2 7.0
2019-Nov-11 10:15 183 1 gusting 2 7.1
2019-Nov-11 10:10 179 2 gusting 3 7.3
2019-Nov-11 10:05 178 2 gusting 3 7.6
2019-Nov-11 10:00 182 2 gusting 3 7.7
2019-Nov-11 09:55 174 3 gusting 4 7.8
2019-Nov-11 09:50 178 3 gusting 4 7.9
2019-Nov-11 09:45 182 3 gusting 4 7.9
2019-Nov-11 09:40 191 2 gusting 3 7.9
2019-Nov-11 09:35 190 1 gusting 2 8.2
2019-Nov-11 09:30 188 2 gusting 3 8.5
2019-Nov-11 09:25 188 3 gusting 5 8.7
2019-Nov-11 09:20 192 3 gusting 4 8.8
2019-Nov-11 09:15 188 2 gusting 4 8.8
2019-Nov-11 09:10 184 3 gusting 4 8.7
2019-Nov-11 09:05 189 3 gusting 5 8.7
2019-Nov-11 09:00 197 3 gusting 4 8.7